<?xml version="1.0" encoding="UTF-8" standalone="no" ?>
<gpx xmlns="http://www.topografix.com/GPX/1/1" xmlns:xsi="http://www.w3.org/2001/XMLSchema-instance" xsi:schemaLocation="http://www.topografix.com/GPX/1/1 http://www.topografix.com/GPX/1/1/gpx.xsd" version="1.1" creator="VisuGPX - https://www.visugpx.com">
  <metadata>
    <name>Gruissan, Notre-Dame des Auzils, la Clape, l'étang et la tour </name>
    <desc><![CDATA[Visite de Notre-Dame des Auzils, de la Clape, des bords de l'étang  et de  la "tour Barberousse" de Gruissan. 

http://vttolonzac.blogspot.fr/2012/11/eo-oe-gruissan.html
]]></desc>
  </metadata>
  <trk>
    <name><![CDATA[Tracé 006]]></name>
    <trkseg>
      <trkpt lat="43.10866" lon="3.09001">
        <ele>3.98</ele>
        <time>2012-11-05T14:32:10Z</time>
      </trkpt>
      <trkpt lat="43.10866" lon="3.09002">
        <ele>3.98</ele>
        <time>2012-11-05T14:32:11Z</time>
      </trkpt>
      <trkpt lat="43.10865" lon="3.09005">
        <ele>2.54</ele>
        <time>2012-11-05T14:32:14Z</time>
      </trkpt>
      <trkpt lat="43.10865" lon="3.09008">
        <ele>1.1</ele>
        <time>2012-11-05T14:32:16Z</time>
      </trkpt>
      <trkpt lat="43.10864" lon="3.09019">
        <ele>1.1</ele>
        <time>2012-11-05T14:32:23Z</time>
      </trkpt>
      <trkpt lat="43.10864" lon="3.09021">
        <ele>1.58</ele>
        <time>2012-11-05T14:32:25Z</time>
      </trkpt>
      <trkpt lat="43.10864" lon="3.09025">
        <ele>1.58</ele>
        <time>2012-11-05T14:32:27Z</time>
      </trkpt>
      <trkpt lat="43.10864" lon="3.09027">
        <ele>1.1</ele>
        <time>2012-11-05T14:32:29Z</time>
      </trkpt>
      <trkpt lat="43.10864" lon="3.09028">
        <ele>1.1</ele>
        <time>2012-11-05T14:32:31Z</time>
      </trkpt>
      <trkpt lat="43.10863" lon="3.09038">
        <ele>0.62</ele>
        <time>2012-11-05T14:32:38Z</time>
      </trkpt>
      <trkpt lat="43.10863" lon="3.09042">
        <ele>1.1</ele>
        <time>2012-11-05T14:32:41Z</time>
      </trkpt>
      <trkpt lat="43.10864" lon="3.09051">
        <ele>-0.34</ele>
        <time>2012-11-05T14:32:53Z</time>
      </trkpt>
      <trkpt lat="43.10863" lon="3.09051">
        <ele>1.1</ele>
        <time>2012-11-05T14:33:03Z</time>
      </trkpt>
      <trkpt lat="43.10863" lon="3.09051">
        <ele>1.58</ele>
        <time>2012-11-05T14:33:13Z</time>
      </trkpt>
      <trkpt lat="43.10863" lon="3.09051">
        <ele>3.5</ele>
        <time>2012-11-05T14:33:21Z</time>
      </trkpt>
      <trkpt lat="43.10863" lon="3.09051">
        <ele>-0.34</ele>
        <time>2012-11-05T14:33:22Z</time>
      </trkpt>
      <trkpt lat="43.10863" lon="3.09051">
        <ele>0.62</ele>
        <time>2012-11-05T14:33:23Z</time>
      </trkpt>
      <trkpt lat="43.10863" lon="3.09051">
        <ele>0.62</ele>
        <time>2012-11-05T14:33:34Z</time>
      </trkpt>
      <trkpt lat="43.10863" lon="3.09051">
        <ele>2.54</ele>
        <time>2012-11-05T14:33:37Z</time>
      </trkpt>
      <trkpt lat="43.10863" lon="3.09051">
        <ele>1.58</ele>
        <time>2012-11-05T14:33:39Z</time>
      </trkpt>
      <trkpt lat="43.10864" lon="3.09051">
        <ele>1.1</ele>
        <time>2012-11-05T14:33:56Z</time>
      </trkpt>
      <trkpt lat="43.10864" lon="3.09052">
        <ele>1.1</ele>
        <time>2012-11-05T14:34:10Z</time>
      </trkpt>
      <trkpt lat="43.10865" lon="3.0905">
        <ele>1.58</ele>
        <time>2012-11-05T14:34:23Z</time>
      </trkpt>
      <trkpt lat="43.10864" lon="3.0905">
        <ele>1.1</ele>
        <time>2012-11-05T14:34:38Z</time>
      </trkpt>
      <trkpt lat="43.10864" lon="3.09049">
        <ele>0.62</ele>
        <time>2012-11-05T14:34:57Z</time>
      </trkpt>
      <trkpt lat="43.10864" lon="3.09049">
        <ele>-0.34</ele>
        <time>2012-11-05T14:35:20Z</time>
      </trkpt>
      <trkpt lat="43.10865" lon="3.09048">
        <ele>-3.71</ele>
        <time>2012-11-05T14:35:21Z</time>
      </trkpt>
      <trkpt lat="43.10869" lon="3.09049">
        <ele>0.62</ele>
        <time>2012-11-05T14:35:26Z</time>
      </trkpt>
      <trkpt lat="43.10868" lon="3.09048">
        <ele>0.62</ele>
        <time>2012-11-05T14:35:45Z</time>
      </trkpt>
      <trkpt lat="43.10868" lon="3.09048">
        <ele>1.1</ele>
        <time>2012-11-05T14:36:10Z</time>
      </trkpt>
      <trkpt lat="43.10868" lon="3.09048">
        <ele>0.14</ele>
        <time>2012-11-05T14:36:28Z</time>
      </trkpt>
      <trkpt lat="43.10869" lon="3.09048">
        <ele>1.1</ele>
        <time>2012-11-05T14:36:48Z</time>
      </trkpt>
      <trkpt lat="43.10868" lon="3.09048">
        <ele>-2.27</ele>
        <time>2012-11-05T14:37:04Z</time>
      </trkpt>
      <trkpt lat="43.10868" lon="3.09048">
        <ele>-1.79</ele>
        <time>2012-11-05T14:37:05Z</time>
      </trkpt>
      <trkpt lat="43.10868" lon="3.09048">
        <ele>0.14</ele>
        <time>2012-11-05T14:37:08Z</time>
      </trkpt>
      <trkpt lat="43.10868" lon="3.09047">
        <ele>-1.3</ele>
        <time>2012-11-05T14:37:20Z</time>
      </trkpt>
      <trkpt lat="43.10868" lon="3.09047">
        <ele>0.14</ele>
        <time>2012-11-05T14:37:43Z</time>
      </trkpt>
      <trkpt lat="43.10868" lon="3.09047">
        <ele>-0.34</ele>
        <time>2012-11-05T14:38:03Z</time>
      </trkpt>
      <trkpt lat="43.10867" lon="3.09046">
        <ele>-0.34</ele>
        <time>2012-11-05T14:38:20Z</time>
      </trkpt>
      <trkpt lat="43.10867" lon="3.09046">
        <ele>0.14</ele>
        <time>2012-11-05T14:38:42Z</time>
      </trkpt>
      <trkpt lat="43.10867" lon="3.09046">
        <ele>0.14</ele>
        <time>2012-11-05T14:38:49Z</time>
      </trkpt>
      <trkpt lat="43.10867" lon="3.09045">
        <ele>-1.3</ele>
        <time>2012-11-05T14:38:53Z</time>
      </trkpt>
      <trkpt lat="43.10867" lon="3.09045">
        <ele>0.14</ele>
        <time>2012-11-05T14:38:58Z</time>
      </trkpt>
      <trkpt lat="43.10867" lon="3.09045">
        <ele>0.62</ele>
        <time>2012-11-05T14:39:22Z</time>
      </trkpt>
      <trkpt lat="43.10867" lon="3.09045">
        <ele>1.1</ele>
        <time>2012-11-05T14:39:27Z</time>
      </trkpt>
      <trkpt lat="43.10867" lon="3.09045">
        <ele>0.62</ele>
        <time>2012-11-05T14:39:42Z</time>
      </trkpt>
      <trkpt lat="43.10867" lon="3.09046">
        <ele>0.62</ele>
        <time>2012-11-05T14:40:00Z</time>
      </trkpt>
      <trkpt lat="43.10867" lon="3.09046">
        <ele>0.62</ele>
        <time>2012-11-05T14:40:16Z</time>
      </trkpt>
      <trkpt lat="43.10868" lon="3.09046">
        <ele>0.14</ele>
        <time>2012-11-05T14:40:32Z</time>
      </trkpt>
      <trkpt lat="43.10868" lon="3.09046">
        <ele>0.14</ele>
        <time>2012-11-05T14:40:48Z</time>
      </trkpt>
      <trkpt lat="43.10868" lon="3.09046">
        <ele>0.14</ele>
        <time>2012-11-05T14:41:09Z</time>
      </trkpt>
      <trkpt lat="43.10868" lon="3.09046">
        <ele>0.62</ele>
        <time>2012-11-05T14:41:40Z</time>
      </trkpt>
      <trkpt lat="43.10868" lon="3.09047">
        <ele>0.62</ele>
        <time>2012-11-05T14:41:50Z</time>
      </trkpt>
      <trkpt lat="43.10867" lon="3.09046">
        <ele>0.14</ele>
        <time>2012-11-05T14:42:02Z</time>
      </trkpt>
      <trkpt lat="43.10867" lon="3.09045">
        <ele>-3.23</ele>
        <time>2012-11-05T14:42:05Z</time>
      </trkpt>
      <trkpt lat="43.10867" lon="3.09045">
        <ele>1.1</ele>
        <time>2012-11-05T14:42:08Z</time>
      </trkpt>
      <trkpt lat="43.10867" lon="3.09045">
        <ele>-2.27</ele>
        <time>2012-11-05T14:42:16Z</time>
      </trkpt>
      <trkpt lat="43.10868" lon="3.09047">
        <ele>-0.82</ele>
        <time>2012-11-05T14:42:30Z</time>
      </trkpt>
      <trkpt lat="43.10867" lon="3.09047">
        <ele>0.14</ele>
        <time>2012-11-05T14:42:43Z</time>
      </trkpt>
      <trkpt lat="43.10867" lon="3.09047">
        <ele>-4.67</ele>
        <time>2012-11-05T14:42:49Z</time>
      </trkpt>
      <trkpt lat="43.10867" lon="3.09047">
        <ele>3.98</ele>
        <time>2012-11-05T14:42:50Z</time>
      </trkpt>
      <trkpt lat="43.10867" lon="3.09047">
        <ele>2.06</ele>
        <time>2012-11-05T14:42:51Z</time>
      </trkpt>
      <trkpt lat="43.10867" lon="3.09047">
        <ele>6.39</ele>
        <time>2012-11-05T14:42:57Z</time>
      </trkpt>
      <trkpt lat="43.10867" lon="3.09047">
        <ele>-1.3</ele>
        <time>2012-11-05T14:42:58Z</time>
      </trkpt>
      <trkpt lat="43.10867" lon="3.09047">
        <ele>7.35</ele>
        <time>2012-11-05T14:43:00Z</time>
      </trkpt>
      <trkpt lat="43.10867" lon="3.09047">
        <ele>4.94</ele>
        <time>2012-11-05T14:43:01Z</time>
      </trkpt>
      <trkpt lat="43.10867" lon="3.09047">
        <ele>-1.79</ele>
        <time>2012-11-05T14:43:02Z</time>
      </trkpt>
      <trkpt lat="43.10867" lon="3.09047">
        <ele>2.06</ele>
        <time>2012-11-05T14:43:03Z</time>
      </trkpt>
      <trkpt lat="43.10867" lon="3.09047">
        <ele>-1.3</ele>
        <time>2012-11-05T14:43:06Z</time>
      </trkpt>
      <trkpt lat="43.10867" lon="3.09047">
        <ele>4.94</ele>
        <time>2012-11-05T14:43:09Z</time>
      </trkpt>
      <trkpt lat="43.10867" lon="3.09047">
        <ele>-5.63</ele>
        <time>2012-11-05T14:43:10Z</time>
      </trkpt>
      <trkpt lat="43.10867" lon="3.09047">
        <ele>2.54</ele>
        <time>2012-11-05T14:43:11Z</time>
      </trkpt>
      <trkpt lat="43.10867" lon="3.09047">
        <ele>-0.34</ele>
        <time>2012-11-05T14:43:12Z</time>
      </trkpt>
      <trkpt lat="43.10867" lon="3.09047">
        <ele>1.58</ele>
        <time>2012-11-05T14:43:17Z</time>
      </trkpt>
      <trkpt lat="43.10862" lon="3.09052">
        <ele>2.06</ele>
        <time>2012-11-05T14:43:38Z</time>
      </trkpt>
      <trkpt lat="43.10862" lon="3.09055">
        <ele>-3.71</ele>
        <time>2012-11-05T14:43:44Z</time>
      </trkpt>
      <trkpt lat="43.10862" lon="3.09054">
        <ele>1.1</ele>
        <time>2012-11-05T14:43:45Z</time>
      </trkpt>
      <trkpt lat="43.10863" lon="3.09054">
        <ele>-2.75</ele>
        <time>2012-11-05T14:43:56Z</time>
      </trkpt>
      <trkpt lat="43.10863" lon="3.09054">
        <ele>1.58</ele>
        <time>2012-11-05T14:43:57Z</time>
      </trkpt>
      <trkpt lat="43.10863" lon="3.09054">
        <ele>-1.79</ele>
        <time>2012-11-05T14:44:03Z</time>
      </trkpt>
      <trkpt lat="43.10863" lon="3.09054">
        <ele>2.06</ele>
        <time>2012-11-05T14:44:06Z</time>
      </trkpt>
      <trkpt lat="43.10863" lon="3.09054">
        <ele>-1.3</ele>
        <time>2012-11-05T14:44:07Z</time>
      </trkpt>
      <trkpt lat="43.10863" lon="3.09054">
        <ele>0.14</ele>
        <time>2012-11-05T14:44:29Z</time>
      </trkpt>
      <trkpt lat="43.10863" lon="3.09054">
        <ele>0.62</ele>
        <time>2012-11-05T14:44:59Z</time>
      </trkpt>
      <trkpt lat="43.10863" lon="3.09054">
        <ele>0.14</ele>
        <time>2012-11-05T14:45:28Z</time>
      </trkpt>
      <trkpt lat="43.10863" lon="3.09054">
        <ele>-0.82</ele>
        <time>2012-11-05T14:45:36Z</time>
      </trkpt>
      <trkpt lat="43.10863" lon="3.09054">
        <ele>2.54</ele>
        <time>2012-11-05T14:45:52Z</time>
      </trkpt>
      <trkpt lat="43.10863" lon="3.09054">
        <ele>2.06</ele>
        <time>2012-11-05T14:45:53Z</time>
      </trkpt>
      <trkpt lat="43.10862" lon="3.09054">
        <ele>1.1</ele>
        <time>2012-11-05T14:45:55Z</time>
      </trkpt>
      <trkpt lat="43.10862" lon="3.09054">
        <ele>4.46</ele>
        <time>2012-11-05T14:46:00Z</time>
      </trkpt>
      <trkpt lat="43.10862" lon="3.09055">
        <ele>-4.19</ele>
        <time>2012-11-05T14:46:01Z</time>
      </trkpt>
      <trkpt lat="43.10862" lon="3.09055">
        <ele>1.58</ele>
        <time>2012-11-05T14:46:02Z</time>
      </trkpt>
      <trkpt lat="43.10862" lon="3.09055">
        <ele>4.94</ele>
        <time>2012-11-05T14:46:03Z</time>
      </trkpt>
      <trkpt lat="43.10862" lon="3.09055">
        <ele>1.58</ele>
        <time>2012-11-05T14:46:04Z</time>
      </trkpt>
      <trkpt lat="43.10862" lon="3.09055">
        <ele>-4.19</ele>
        <time>2012-11-05T14:46:06Z</time>
      </trkpt>
      <trkpt lat="43.10862" lon="3.09055">
        <ele>2.54</ele>
        <time>2012-11-05T14:46:07Z</time>
      </trkpt>
      <trkpt lat="43.10862" lon="3.09054">
        <ele>9.75</ele>
        <time>2012-11-05T14:46:14Z</time>
      </trkpt>
      <trkpt lat="43.10862" lon="3.09054">
        <ele>1.58</ele>
        <time>2012-11-05T14:46:15Z</time>
      </trkpt>
    </trkseg>
  </trk>
</gpx>